首页
METAR-TAF:

METAR-TAF

机场 :

Southwest Florida International Airport

麥爾茲堡, 佛罗里达州, 美国

纬度: 26-31-37N, 经度: 081-45-59W, 海拔: 9米

当前天气观测

该预报发布于26分钟前的02:53 UTC
静风
温度 26°C
湿度 84%
气压 1018 hPa
能見度: 16.1公里
天空无云

METAR: KRSW 220253Z 00000KT 10SM CLR 26/23 A3007 RMK AO2 SLP178 T02610228 51009

时间: 23:19 (03:19 UTC)

预报

该预报发布于3小时和44分钟前的23:35 UTC
预报有效从22日的 00点(UTC)到 22日的 24点(UTC)
风速5节,风向西北
能見度: 10公里
散云层高于4500英尺, 积雨云.
多云层高于10000英尺
附近有雷暴
短暂存在
从 22日的 00点(UTC)到 22日的 01点(UTC)
风速10节,风向多变,有时为20节阵风
能見度: 4.8公里
多云层高于2500英尺, 积雨云.
阴天层高于5000英尺
雷暴, 雨
从 22日的 0200点(UTC)
风速3节,风向多变
能見度: 10公里
散云层高于4000英尺
散云层高于10000英尺
多云层高于25000英尺
从 22日的 1400点(UTC)
风速6节,风向
能見度: 10公里
散云层高于2500英尺
散云层高于25000英尺
从 22日的 1900点(UTC)
风速7节,风向东转东北
能見度: 10公里
散云层高于3500英尺, 积雨云.
多云层高于25000英尺
附近有雷暴

TAF: KRSW 212335Z 2200/2224 31005KT P6SM VCTS SCT045CB BKN100 TEMPO 2200/2201 VRB10G20KT 3SM TSRA BKN025CB OVC050 FM220200 VRB03KT P6SM SCT040 SCT100 BKN250 FM221400 08006KT P6SM SCT025 SCT250 FM221900 07007KT P6SM VCTS SCT035CB BKN250

超过4000个机场的气象观测和天气预报(METAR&TAF报告)。

可查询的气象台以黄色和红色小点在地图上表示。

将鼠标移到小点上方,可查看气象台名称。

然后点击查看天气观测和预报。

如需切换地图:点击带黑十字的绿色按钮放大地图;点击带横线的绿色按钮缩小地图;或者点击绿色箭头查看邻近地区的地图。


METAR-TAF: